createdAt,value
2023-03-07T00:01:26.263Z,18.40
2023-03-07T00:08:11.051Z,18.40
2023-03-07T00:11:33.331Z,18.40
2023-03-07T00:14:55.654Z,18.40
2023-03-07T00:18:18.083Z,18.40
2023-03-07T00:21:40.274Z,18.40
2023-03-07T00:25:02.626Z,18.40
2023-03-07T00:28:24.772Z,18.40
2023-03-07T00:31:48.761Z,18.40
2023-03-07T00:35:10.962Z,18.40
2023-03-07T00:38:33.718Z,18.40
2023-03-07T00:41:55.934Z,18.40
2023-03-07T00:45:18.196Z,18.40
2023-03-07T00:48:40.766Z,18.40
2023-03-07T00:52:03.010Z,18.40
2023-03-07T00:55:25.192Z,18.40
2023-03-07T00:58:48.019Z,18.40
2023-03-07T01:02:10.152Z,18.30
2023-03-07T01:05:32.341Z,18.30
2023-03-07T01:08:55.974Z,18.30
2023-03-07T01:12:18.668Z,18.30
2023-03-07T01:15:40.890Z,18.30
2023-03-07T01:19:04.747Z,18.30
2023-03-07T01:22:27.303Z,18.30
2023-03-07T01:25:49.641Z,18.30
2023-03-07T01:29:13.058Z,18.30
2023-03-07T01:32:35.334Z,18.30
2023-03-07T01:35:57.820Z,18.20
2023-03-07T01:39:20.211Z,18.20
2023-03-07T01:43:17.341Z,18.20
2023-03-07T01:46:58.696Z,18.20
2023-03-07T01:50:29.790Z,18.30
2023-03-07T01:53:52.549Z,18.20
2023-03-07T01:57:16.496Z,18.20
2023-03-07T02:00:39.345Z,18.20
2023-03-07T02:04:13.753Z,18.20
2023-03-07T02:07:39.015Z,18.20
2023-03-07T02:11:01.353Z,18.20
2023-03-07T02:14:23.538Z,18.20
2023-03-07T02:17:45.911Z,18.20
2023-03-07T02:21:09.398Z,18.20
2023-03-07T02:24:33.699Z,18.20
2023-03-07T02:27:57.270Z,18.20
2023-03-07T02:31:20.886Z,18.20
2023-03-07T02:34:44.031Z,18.10
2023-03-07T02:38:11.285Z,18.20
2023-03-07T02:41:34.588Z,18.20
2023-03-07T02:45:03.472Z,18.10
2023-03-07T02:48:29.042Z,18.20
2023-03-07T02:51:51.589Z,18.20
2023-03-07T02:55:13.853Z,18.10
2023-03-07T02:58:42.840Z,18.10
2023-03-07T03:02:05.257Z,18.10
2023-03-07T03:05:27.506Z,18.10
2023-03-07T03:08:49.909Z,18.10
2023-03-07T03:12:12.197Z,18.10
2023-03-07T03:15:34.809Z,18.10
2023-03-07T03:18:57.145Z,18.10
2023-03-07T03:22:20.628Z,18.10
2023-03-07T03:25:45.170Z,18.10
2023-03-07T03:29:07.562Z,18.10
2023-03-07T03:32:29.847Z,18.10
2023-03-07T03:35:52.175Z,18.00
2023-03-07T03:39:14.983Z,18.00
2023-03-07T03:42:42.082Z,18.10
2023-03-07T03:46:04.628Z,18.00
2023-03-07T03:49:27.393Z,18.00
2023-03-07T03:52:50.556Z,18.00
2023-03-07T03:56:14.122Z,18.00
2023-03-07T03:59:37.288Z,18.00
2023-03-07T04:02:59.939Z,18.00
2023-03-07T04:06:30.771Z,18.00
2023-03-07T04:09:53.933Z,18.00
2023-03-07T04:13:16.318Z,18.00
2023-03-07T04:16:39.165Z,18.00
2023-03-07T04:20:01.499Z,18.00
2023-03-07T04:23:24.581Z,18.00
2023-03-07T04:26:46.738Z,17.90
2023-03-07T04:30:10.650Z,17.90
2023-03-07T04:33:32.772Z,18.00
2023-03-07T04:36:55.010Z,18.00
2023-03-07T04:40:17.236Z,17.90
2023-03-07T04:43:39.546Z,18.00
2023-03-07T04:47:01.838Z,18.00
2023-03-07T04:50:27.035Z,18.00
2023-03-07T04:53:49.360Z,18.00
2023-03-07T04:57:11.907Z,18.00
2023-03-07T05:00:34.466Z,17.90
2023-03-07T05:03:56.870Z,17.90
2023-03-07T05:07:19.581Z,17.90
2023-03-07T05:10:42.073Z,18.00
2023-03-07T05:14:04.323Z,18.00
2023-03-07T05:17:26.966Z,18.10
2023-03-07T05:20:49.966Z,18.20
2023-03-07T05:24:12.515Z,18.30
2023-03-07T05:27:35.097Z,18.40
2023-03-07T05:30:57.435Z,18.50
2023-03-07T05:34:19.724Z,18.50
2023-03-07T05:37:42.526Z,18.60
2023-03-07T05:41:04.884Z,18.70
2023-03-07T05:44:27.182Z,18.80
2023-03-07T05:47:50.715Z,18.80
2023-03-07T05:51:13.547Z,18.90
2023-03-07T05:54:36.408Z,19.00
2023-03-07T05:57:58.802Z,19.10
2023-03-07T06:01:21.292Z,19.10
2023-03-07T06:04:43.671Z,19.20
2023-03-07T06:08:07.068Z,19.30
2023-03-07T06:11:30.005Z,19.30
2023-03-07T06:14:52.273Z,19.30
2023-03-07T06:18:14.802Z,19.30
2023-03-07T06:21:37.013Z,19.30
2023-03-07T06:24:59.304Z,19.30
2023-03-07T06:28:21.872Z,19.30
2023-03-07T06:31:44.612Z,19.30
2023-03-07T06:35:07.105Z,19.30
2023-03-07T06:38:29.595Z,19.30
2023-03-07T06:41:51.826Z,19.30
2023-03-07T06:45:14.007Z,19.30
2023-03-07T06:48:36.229Z,19.30
2023-03-07T06:52:01.674Z,19.20
2023-03-07T06:55:23.877Z,19.10
2023-03-07T06:58:46.234Z,19.10
2023-03-07T07:02:13.333Z,19.00
2023-03-07T07:05:35.684Z,19.00
2023-03-07T07:08:58.695Z,19.00
2023-03-07T07:12:25.166Z,19.00
2023-03-07T07:15:47.588Z,19.00
2023-03-07T07:19:10.188Z,19.00
2023-03-07T07:22:32.615Z,18.90
2023-03-07T07:25:54.954Z,18.90
2023-03-07T07:29:17.181Z,18.90
2023-03-07T07:32:41.284Z,18.90
2023-03-07T07:36:03.922Z,18.90
2023-03-07T07:39:26.373Z,18.80
2023-03-07T07:42:54.723Z,18.80
2023-03-07T07:46:37.242Z,18.70
2023-03-07T07:50:01.458Z,18.80
2023-03-07T07:53:27.671Z,18.80
2023-03-07T07:56:49.918Z,18.70
2023-03-07T08:00:13.472Z,18.70
2023-03-07T08:03:35.631Z,18.70
2023-03-07T08:06:57.867Z,18.70
2023-03-07T08:10:20.255Z,18.70
2023-03-07T08:13:42.535Z,18.60
2023-03-07T08:17:04.718Z,18.60
2023-03-07T08:20:26.981Z,18.50
2023-03-07T08:23:49.465Z,18.50
2023-03-07T08:27:11.694Z,18.50
2023-03-07T08:30:35.134Z,18.50
2023-03-07T08:33:57.288Z,18.50
2023-03-07T08:37:19.519Z,18.50
2023-03-07T08:40:41.675Z,18.50
2023-03-07T08:44:03.918Z,18.50
2023-03-07T08:47:26.125Z,18.50
2023-03-07T08:50:48.270Z,18.50
2023-03-07T08:54:10.474Z,18.50
2023-03-07T08:57:33.290Z,18.50
2023-03-07T09:00:55.474Z,18.50
2023-03-07T09:04:17.711Z,18.50
2023-03-07T09:07:39.880Z,18.50
2023-03-07T09:11:03.692Z,18.50
2023-03-07T09:14:25.975Z,18.50
2023-03-07T09:17:48.248Z,18.50
2023-03-07T09:21:10.825Z,18.50
2023-03-07T09:24:33.073Z,18.50
2023-03-07T09:27:55.322Z,18.50
2023-03-07T09:31:18.916Z,18.50
2023-03-07T09:34:41.084Z,18.50
2023-03-07T09:38:03.226Z,18.50
2023-03-07T09:41:44.169Z,18.50
2023-03-07T09:45:21.290Z,18.50
2023-03-07T09:48:59.500Z,18.50
2023-03-07T09:52:29.122Z,18.50
2023-03-07T09:55:53.806Z,18.50
2023-03-07T09:59:34.575Z,18.50
2023-03-07T10:03:09.507Z,18.50
2023-03-07T10:06:39.019Z,18.60
2023-03-07T10:10:02.369Z,18.60
2023-03-07T10:13:24.469Z,18.60
2023-03-07T10:16:50.929Z,18.70
2023-03-07T10:20:16.317Z,18.70
2023-03-07T10:23:42.667Z,18.70
2023-03-07T10:27:08.699Z,18.60
2023-03-07T10:30:31.898Z,18.60
2023-03-07T10:33:54.558Z,18.60
2023-03-07T10:37:18.510Z,18.60
2023-03-07T10:40:48.783Z,18.60
2023-03-07T10:44:14.367Z,18.60
2023-03-07T10:47:36.714Z,18.50
2023-03-07T10:51:04.995Z,18.50
2023-03-07T10:54:31.567Z,18.60
2023-03-07T10:57:53.726Z,18.60
2023-03-07T11:01:18.314Z,18.60
2023-03-07T11:04:45.045Z,18.50
2023-03-07T11:08:20.932Z,18.60
2023-03-07T11:11:49.240Z,18.50
2023-03-07T11:15:15.380Z,18.50
2023-03-07T11:18:38.978Z,18.50
2023-03-07T11:22:05.054Z,18.50
2023-03-07T11:25:27.283Z,18.40
2023-03-07T11:28:55.355Z,18.50
2023-03-07T11:32:21.041Z,18.60
2023-03-07T11:35:43.472Z,18.60
2023-03-07T11:39:18.007Z,18.60
2023-03-07T11:43:06.516Z,18.70
2023-03-07T11:46:39.784Z,18.70
2023-03-07T11:50:04.603Z,18.60
2023-03-07T11:53:34.645Z,18.60
2023-03-07T11:57:00.554Z,18.60
2023-03-07T12:00:22.795Z,18.60
2023-03-07T12:03:50.913Z,18.60
2023-03-07T12:07:22.201Z,18.60
2023-03-07T12:10:45.755Z,18.60
2023-03-07T12:14:18.818Z,18.70
2023-03-07T12:17:46.733Z,18.70
2023-03-07T12:21:22.181Z,18.60
2023-03-07T12:24:59.601Z,18.60
2023-03-07T12:28:21.711Z,18.60
2023-03-07T12:31:45.902Z,18.60
2023-03-07T12:35:16.396Z,18.60
2023-03-07T12:38:50.774Z,18.60
2023-03-07T12:42:19.034Z,18.60
2023-03-07T12:46:04.664Z,18.60
2023-03-07T12:49:49.021Z,18.60
2023-03-07T12:53:22.296Z,18.60
2023-03-07T12:56:47.038Z,18.60
2023-03-07T13:00:11.672Z,18.50
2023-03-07T13:03:54.164Z,18.60
2023-03-07T13:07:18.224Z,18.60
2023-03-07T13:10:44.507Z,18.60
2023-03-07T13:14:06.725Z,18.60
2023-03-07T13:17:34.693Z,18.60
2023-03-07T13:21:31.981Z,18.60
2023-03-07T13:24:54.921Z,18.60
2023-03-07T13:28:46.293Z,18.60
2023-03-07T13:32:31.481Z,18.60
2023-03-07T13:35:57.896Z,18.60
2023-03-07T13:39:36.186Z,18.60
2023-03-07T13:42:58.316Z,18.50
2023-03-07T13:46:38.715Z,18.50
2023-03-07T13:50:00.798Z,18.50
2023-03-07T13:53:31.983Z,18.50
2023-03-07T13:56:55.066Z,18.50
2023-03-07T14:00:30.152Z,18.50
2023-03-07T14:03:57.537Z,18.50
2023-03-07T14:07:28.903Z,18.50
2023-03-07T14:10:51.152Z,18.40
2023-03-07T14:14:22.270Z,18.50
2023-03-07T14:17:59.684Z,18.40
2023-03-07T14:21:40.541Z,18.40
2023-03-07T14:25:14.834Z,18.40
2023-03-07T14:28:46.670Z,18.40
2023-03-07T14:32:20.073Z,18.40
2023-03-07T14:35:43.672Z,18.40
2023-03-07T14:39:06.202Z,18.40
2023-03-07T14:42:36.256Z,18.40
2023-03-07T14:46:04.101Z,18.40
2023-03-07T14:49:38.604Z,18.40
2023-03-07T14:53:05.423Z,18.40
2023-03-07T14:56:28.840Z,18.40
2023-03-07T15:00:09.840Z,18.40
2023-03-07T15:03:32.139Z,18.40
2023-03-07T15:06:55.725Z,18.40
2023-03-07T15:10:20.096Z,18.40
2023-03-07T15:13:42.199Z,18.40
2023-03-07T15:17:06.281Z,18.30
2023-03-07T15:20:28.547Z,18.40
2023-03-07T15:23:51.949Z,18.40
2023-03-07T15:27:15.456Z,18.30
2023-03-07T15:30:38.186Z,18.30
2023-03-07T15:34:11.029Z,18.30
2023-03-07T15:37:33.863Z,18.30
2023-03-07T15:40:56.004Z,18.30
2023-03-07T15:44:19.190Z,18.30
2023-03-07T15:47:41.337Z,18.30
2023-03-07T15:51:06.436Z,18.30
2023-03-07T15:54:39.375Z,18.30
2023-03-07T15:58:11.184Z,18.20
2023-03-07T16:01:33.466Z,18.20
2023-03-07T16:04:55.651Z,18.20
2023-03-07T16:08:19.913Z,18.20
2023-03-07T16:11:42.662Z,18.20
2023-03-07T16:15:06.320Z,18.30
2023-03-07T16:18:29.933Z,18.20
2023-03-07T16:21:52.099Z,18.30
2023-03-07T16:25:15.684Z,18.30
2023-03-07T16:28:38.766Z,18.30
2023-03-07T16:32:01.456Z,18.40
2023-03-07T16:35:25.014Z,18.30
2023-03-07T16:38:47.209Z,18.30
2023-03-07T16:42:22.632Z,18.30
2023-03-07T16:45:44.787Z,18.30
2023-03-07T16:49:06.910Z,18.30
2023-03-07T16:52:29.023Z,18.30
2023-03-07T16:55:51.529Z,18.30
2023-03-07T16:59:20.910Z,18.30
2023-03-07T17:02:43.657Z,18.30
2023-03-07T17:06:06.002Z,18.40
2023-03-07T17:09:28.078Z,18.40
2023-03-07T17:12:50.682Z,18.50
2023-03-07T17:16:16.739Z,18.60
2023-03-07T17:19:39.009Z,18.60
2023-03-07T17:23:01.134Z,18.70
2023-03-07T17:26:23.258Z,18.70
2023-03-07T17:29:47.698Z,18.80
2023-03-07T17:33:11.161Z,18.80
2023-03-07T17:36:33.433Z,18.90
2023-03-07T17:39:55.648Z,18.90
2023-03-07T17:43:17.919Z,18.90
2023-03-07T17:46:40.095Z,18.90
2023-03-07T17:50:02.421Z,18.90
2023-03-07T17:53:24.746Z,18.80
2023-03-07T17:56:46.895Z,18.90
2023-03-07T18:00:13.202Z,18.90
2023-03-07T18:03:35.511Z,18.90
2023-03-07T18:06:58.404Z,19.00
2023-03-07T18:10:20.546Z,19.00
2023-03-07T18:13:42.866Z,19.00
2023-03-07T18:17:05.071Z,19.10
2023-03-07T18:20:29.684Z,19.10
2023-03-07T18:23:52.362Z,19.10
2023-03-07T18:27:15.625Z,19.10
2023-03-07T18:30:37.746Z,19.10
2023-03-07T18:34:00.967Z,19.10
2023-03-07T18:37:23.142Z,19.10
2023-03-07T18:40:46.176Z,19.10
2023-03-07T18:44:08.870Z,19.20
2023-03-07T18:47:31.084Z,19.20
2023-03-07T18:51:00.130Z,19.30
2023-03-07T18:54:22.946Z,19.30
2023-03-07T18:57:45.033Z,19.30
2023-03-07T19:01:13.283Z,19.30
2023-03-07T19:04:35.435Z,19.30
2023-03-07T19:07:57.629Z,19.20
2023-03-07T19:11:21.212Z,19.30
2023-03-07T19:14:43.355Z,19.30
2023-03-07T19:18:05.530Z,19.20
2023-03-07T19:21:28.593Z,19.20
2023-03-07T19:24:51.095Z,19.20
2023-03-07T19:28:13.296Z,19.20
2023-03-07T19:31:35.521Z,19.20
2023-03-07T19:34:57.851Z,19.30
2023-03-07T19:38:19.944Z,19.20
2023-03-07T19:41:45.025Z,19.20
2023-03-07T19:45:07.551Z,19.20
2023-03-07T19:48:29.675Z,19.20
2023-03-07T19:51:51.934Z,19.20
2023-03-07T19:55:14.199Z,19.30
2023-03-07T19:58:37.138Z,19.20
2023-03-07T20:01:59.396Z,19.10
2023-03-07T20:05:21.634Z,19.00
2023-03-07T20:08:43.893Z,19.00
2023-03-07T20:12:06.150Z,18.80
2023-03-07T20:15:28.331Z,18.70
2023-03-07T20:18:50.959Z,18.70
2023-03-07T20:22:13.114Z,18.80
2023-03-07T20:25:36.371Z,18.80
2023-03-07T20:28:59.198Z,18.90
2023-03-07T20:32:21.401Z,19.00
2023-03-07T20:35:44.314Z,19.00
2023-03-07T20:39:07.948Z,19.10
2023-03-07T20:42:30.170Z,19.10
2023-03-07T20:45:52.439Z,19.10
2023-03-07T20:49:15.214Z,19.10
2023-03-07T20:52:37.422Z,19.10
2023-03-07T20:56:04.327Z,19.10
2023-03-07T20:59:26.508Z,19.00
2023-03-07T21:02:56.800Z,19.10
2023-03-07T21:06:25.934Z,19.10
2023-03-07T21:09:50.949Z,19.10
2023-03-07T21:13:13.307Z,19.00
2023-03-07T21:16:35.569Z,19.00
2023-03-07T21:19:57.878Z,19.00
2023-03-07T21:23:20.054Z,18.90
2023-03-07T21:26:42.330Z,18.90
2023-03-07T21:30:04.733Z,18.90
2023-03-07T21:33:27.047Z,19.00
2023-03-07T21:36:55.840Z,19.00
2023-03-07T21:40:18.120Z,18.90
2023-03-07T21:43:40.507Z,19.00
2023-03-07T21:47:02.668Z,19.00
2023-03-07T21:50:24.876Z,19.10
2023-03-07T21:53:47.164Z,19.00
2023-03-07T21:57:09.383Z,19.00
2023-03-07T22:00:31.628Z,19.00
2023-03-07T22:03:54.865Z,18.90
2023-03-07T22:07:17.215Z,18.90
2023-03-07T22:10:39.455Z,18.80
2023-03-07T22:14:01.587Z,18.80
2023-03-07T22:17:23.853Z,18.80
2023-03-07T22:20:46.012Z,18.80
2023-03-07T22:24:08.282Z,18.80
2023-03-07T22:27:30.842Z,18.80
2023-03-07T22:30:52.972Z,18.80
2023-03-07T22:34:15.243Z,18.70
2023-03-07T22:37:37.394Z,18.70
2023-03-07T22:41:00.475Z,18.70
2023-03-07T22:44:22.609Z,18.70
2023-03-07T22:47:44.775Z,18.70
2023-03-07T22:51:14.194Z,18.70
2023-03-07T22:54:39.327Z,18.70
2023-03-07T22:58:01.510Z,18.70
2023-03-07T23:01:24.852Z,18.60
2023-03-07T23:04:47.101Z,18.60
2023-03-07T23:08:09.974Z,18.60
2023-03-07T23:11:33.055Z,18.60
2023-03-07T23:14:55.218Z,18.60
2023-03-07T23:18:17.361Z,18.50
2023-03-07T23:21:39.525Z,18.50
2023-03-07T23:25:01.772Z,18.50
2023-03-07T23:28:23.919Z,18.50
2023-03-07T23:31:46.318Z,18.60
2023-03-07T23:35:08.738Z,18.50
2023-03-07T23:38:30.881Z,18.50
2023-03-07T23:41:53.097Z,18.50
2023-03-07T23:45:15.351Z,18.50
2023-03-07T23:48:37.525Z,18.50
2023-03-07T23:51:59.701Z,18.50
2023-03-07T23:55:21.824Z,18.50
2023-03-07T23:58:44.118Z,18.50
